createdAt,value
2017-08-21T00:00:04.036Z,14.96
2017-08-21T00:01:05.911Z,14.99
2017-08-21T00:02:07.800Z,14.84
2017-08-21T00:03:09.620Z,14.89
2017-08-21T00:04:11.437Z,14.89
2017-08-21T00:05:13.317Z,14.88
2017-08-21T00:06:15.197Z,14.88
2017-08-21T00:07:17.085Z,14.94
2017-08-21T00:08:31.238Z,14.98
2017-08-21T00:09:33.116Z,14.98
2017-08-21T00:10:34.993Z,15.09
2017-08-21T00:11:36.882Z,15.14
2017-08-21T00:12:38.702Z,15.06
2017-08-21T00:13:40.521Z,15.23
2017-08-21T00:14:42.399Z,15.27
2017-08-21T00:15:44.291Z,15.39
2017-08-21T00:16:46.166Z,15.49
2017-08-21T00:18:00.320Z,15.54
2017-08-21T00:19:02.203Z,15.50
2017-08-21T00:20:04.081Z,15.49
2017-08-21T00:21:05.962Z,15.44
2017-08-21T00:22:07.782Z,15.44
2017-08-21T00:23:09.613Z,15.46
2017-08-21T00:24:11.503Z,15.51
2017-08-21T00:25:13.381Z,15.44
2017-08-21T00:26:15.261Z,15.47
2017-08-21T00:27:29.426Z,15.46
2017-08-21T00:28:31.302Z,15.46
2017-08-21T00:29:33.178Z,15.56
2017-08-21T00:30:35.068Z,15.49
2017-08-21T00:31:36.888Z,15.59
2017-08-21T00:32:38.708Z,15.68
2017-08-21T00:33:40.587Z,15.68
2017-08-21T00:34:42.466Z,15.76
2017-08-21T00:35:44.342Z,15.71
2017-08-21T00:36:58.496Z,15.62
2017-08-21T00:38:00.374Z,15.56
2017-08-21T00:39:02.251Z,15.49
2017-08-21T00:40:04.130Z,15.51
2017-08-21T00:41:05.949Z,15.51
2017-08-21T00:42:07.779Z,15.51
2017-08-21T00:43:09.658Z,15.54
2017-08-21T00:44:11.539Z,15.68
2017-08-21T00:45:13.421Z,15.71
2017-08-21T00:46:27.569Z,15.76
2017-08-21T00:47:29.447Z,15.82
2017-08-21T00:48:31.329Z,15.86
2017-08-21T00:49:33.217Z,15.87
2017-08-21T00:50:35.036Z,15.86
2017-08-21T00:51:36.865Z,15.83
2017-08-21T00:52:38.756Z,15.86
2017-08-21T00:53:40.633Z,15.84
2017-08-21T00:54:42.515Z,15.78
2017-08-21T00:55:56.678Z,15.80
2017-08-21T00:56:58.557Z,15.65
2017-08-21T00:58:00.435Z,15.62
2017-08-21T00:59:02.313Z,15.54
2017-08-21T01:00:04.134Z,15.57
2017-08-21T01:01:05.954Z,15.49
2017-08-21T01:02:07.845Z,15.49
2017-08-21T01:03:09.738Z,15.49
2017-08-21T01:04:11.609Z,15.44
2017-08-21T01:05:25.762Z,15.69
2017-08-21T01:06:27.652Z,15.71
2017-08-21T01:07:29.540Z,15.71
2017-08-21T01:08:31.417Z,15.76
2017-08-21T01:09:33.240Z,15.72
2017-08-21T01:10:35.071Z,15.69
2017-08-21T01:11:36.965Z,15.59
2017-08-21T01:12:38.847Z,15.59
2017-08-21T01:13:40.723Z,15.57
2017-08-21T01:14:54.876Z,15.57
2017-08-21T01:15:56.763Z,15.39
2017-08-21T01:16:58.650Z,15.43
2017-08-21T01:18:00.538Z,15.47
2017-08-21T01:19:02.355Z,15.56
2017-08-21T01:20:04.173Z,15.53
2017-08-21T01:21:06.066Z,15.54
2017-08-21T01:22:07.945Z,15.47
2017-08-21T01:23:09.833Z,15.49
2017-08-21T01:24:24.035Z,15.53
2017-08-21T01:25:25.913Z,15.38
2017-08-21T01:26:27.790Z,15.29
2017-08-21T01:27:29.664Z,15.21
2017-08-21T01:28:31.497Z,15.21
2017-08-21T01:29:33.314Z,15.23
2017-08-21T01:30:35.207Z,15.27
2017-08-21T01:31:37.087Z,15.19
2017-08-21T01:32:38.978Z,15.23
2017-08-21T01:33:53.131Z,15.34
2017-08-21T01:34:55.019Z,15.31
2017-08-21T01:35:56.899Z,15.31
2017-08-21T01:36:58.790Z,15.27
2017-08-21T01:38:00.629Z,15.31
2017-08-21T01:39:02.449Z,15.27
2017-08-21T01:40:04.340Z,15.29
2017-08-21T01:41:06.230Z,15.39
2017-08-21T01:42:08.124Z,15.38
2017-08-21T01:43:22.280Z,15.54
2017-08-21T01:44:24.172Z,15.49
2017-08-21T01:45:26.054Z,15.59
2017-08-21T01:46:27.937Z,15.56
2017-08-21T01:47:29.772Z,15.67
2017-08-21T01:48:31.592Z,15.72
2017-08-21T01:49:33.480Z,15.74
2017-08-21T01:50:35.372Z,15.78
2017-08-21T01:51:37.254Z,15.80
2017-08-21T01:52:51.409Z,15.83
2017-08-21T01:53:53.298Z,15.83
2017-08-21T01:54:55.180Z,15.97
2017-08-21T01:55:57.059Z,15.89
2017-08-21T01:56:58.885Z,15.89
2017-08-21T01:58:00.705Z,15.92
2017-08-21T01:59:02.595Z,15.84
2017-08-21T02:00:04.472Z,15.78
2017-08-21T02:01:06.354Z,15.71
2017-08-21T02:02:20.515Z,15.72
2017-08-21T02:03:22.399Z,15.75
2017-08-21T02:04:24.282Z,15.74
2017-08-21T02:05:26.175Z,15.72
2017-08-21T02:06:27.998Z,15.62
2017-08-21T02:07:29.816Z,15.57
2017-08-21T02:08:31.706Z,15.47
2017-08-21T02:09:33.584Z,15.54
2017-08-21T02:10:35.475Z,15.51
2017-08-21T02:11:49.632Z,15.49
2017-08-21T02:12:51.521Z,15.49
2017-08-21T02:13:53.411Z,15.50
2017-08-21T02:14:55.309Z,15.43
2017-08-21T02:15:57.131Z,15.39
2017-08-21T02:16:58.952Z,15.39
2017-08-21T02:18:00.846Z,15.34
2017-08-21T02:19:02.744Z,15.46
2017-08-21T02:20:04.625Z,15.47
2017-08-21T02:21:18.782Z,15.50
2017-08-21T02:22:20.662Z,15.47
2017-08-21T02:23:22.541Z,15.51
2017-08-21T02:24:24.439Z,15.53
2017-08-21T02:25:26.264Z,15.47
2017-08-21T02:26:28.085Z,15.49
2017-08-21T02:27:29.964Z,15.56
2017-08-21T02:28:31.845Z,15.47
2017-08-21T02:29:33.731Z,15.44
2017-08-21T02:30:47.885Z,15.36
2017-08-21T02:31:49.770Z,15.35
2017-08-21T02:32:51.662Z,15.38
2017-08-21T02:33:53.544Z,15.34
2017-08-21T02:34:55.366Z,15.34
2017-08-21T02:35:57.184Z,15.32
2017-08-21T02:36:59.072Z,15.34
2017-08-21T02:38:00.955Z,15.27
2017-08-21T02:39:02.852Z,15.13
2017-08-21T02:40:17.059Z,15.03
2017-08-21T02:41:18.936Z,15.10
2017-08-21T02:42:20.850Z,14.92
2017-08-21T02:43:22.727Z,14.96
2017-08-21T02:44:24.553Z,14.94
2017-08-21T02:45:26.373Z,14.95
2017-08-21T02:46:28.257Z,14.98
2017-08-21T02:47:30.148Z,15.10
2017-08-21T02:48:32.030Z,15.13
2017-08-21T02:49:46.184Z,15.10
2017-08-21T02:50:48.084Z,15.03
2017-08-21T02:51:49.957Z,15.09
2017-08-21T02:52:51.838Z,15.10
2017-08-21T02:53:53.665Z,15.06
2017-08-21T02:54:55.483Z,14.96
2017-08-21T02:55:57.371Z,15.02
2017-08-21T02:56:59.252Z,15.02
2017-08-21T02:58:01.143Z,14.99
2017-08-21T02:59:15.299Z,14.95
2017-08-21T03:00:17.193Z,15.02
2017-08-21T03:01:19.073Z,15.06
2017-08-21T03:02:20.955Z,14.96
2017-08-21T03:03:22.791Z,14.98
2017-08-21T03:04:24.609Z,15.02
2017-08-21T03:05:26.491Z,14.86
2017-08-21T03:06:28.380Z,14.96
2017-08-21T03:07:30.295Z,14.98
2017-08-21T03:08:44.455Z,15.03
2017-08-21T03:09:46.329Z,14.99
2017-08-21T03:10:48.224Z,14.99
2017-08-21T03:11:50.104Z,14.91
2017-08-21T03:12:51.937Z,14.91
2017-08-21T03:13:53.754Z,14.88
2017-08-21T03:14:55.653Z,14.70
2017-08-21T03:15:57.528Z,14.78
2017-08-21T03:16:59.420Z,14.80
2017-08-21T03:18:13.586Z,14.58
2017-08-21T03:19:15.477Z,14.62
2017-08-21T03:20:17.358Z,14.55
2017-08-21T03:21:19.239Z,14.51
2017-08-21T03:22:21.069Z,14.47
2017-08-21T03:23:22.898Z,14.54
2017-08-21T03:24:24.789Z,14.52
2017-08-21T03:25:26.680Z,14.42
2017-08-21T03:26:28.563Z,14.40
2017-08-21T03:27:42.720Z,14.42
2017-08-21T03:28:44.612Z,14.37
2017-08-21T03:29:46.503Z,14.36
2017-08-21T03:30:48.388Z,14.36
2017-08-21T03:31:50.214Z,14.35
2017-08-21T03:32:52.043Z,14.29
2017-08-21T03:33:53.924Z,14.28
2017-08-21T03:34:55.807Z,14.25
2017-08-21T03:35:57.690Z,14.29
2017-08-21T03:37:11.857Z,14.39
2017-08-21T03:38:13.740Z,14.27
2017-08-21T03:39:15.634Z,14.20
2017-08-21T03:40:17.519Z,14.24
2017-08-21T03:41:19.354Z,14.28
2017-08-21T03:42:21.185Z,14.33
2017-08-21T03:43:23.070Z,14.45
2017-08-21T03:44:24.951Z,14.43
2017-08-21T03:45:26.839Z,14.52
2017-08-21T03:46:41.046Z,14.50
2017-08-21T03:47:42.935Z,14.58
2017-08-21T03:48:44.811Z,14.68
2017-08-21T03:49:46.695Z,14.57
2017-08-21T03:50:48.531Z,14.65
2017-08-21T03:51:50.354Z,14.69
2017-08-21T03:52:52.237Z,14.64
2017-08-21T03:53:54.121Z,14.60
2017-08-21T03:54:56.007Z,14.62
2017-08-21T03:56:10.166Z,14.64
2017-08-21T03:57:12.048Z,14.69
2017-08-21T03:58:13.933Z,14.57
2017-08-21T03:59:15.817Z,14.60
2017-08-21T04:00:17.652Z,14.70
2017-08-21T04:01:19.485Z,14.77
2017-08-21T04:02:21.366Z,14.75
2017-08-21T04:03:23.259Z,14.72
2017-08-21T04:04:25.146Z,14.72
2017-08-21T04:05:39.308Z,14.62
2017-08-21T04:06:41.190Z,14.58
2017-08-21T04:07:43.077Z,14.58
2017-08-21T04:08:44.963Z,14.57
2017-08-21T04:09:46.785Z,14.60
2017-08-21T04:10:48.618Z,14.55
2017-08-21T04:11:50.515Z,14.51
2017-08-21T04:12:52.398Z,14.55
2017-08-21T04:13:54.285Z,14.60
2017-08-21T04:15:08.443Z,14.58
2017-08-21T04:16:10.328Z,14.57
2017-08-21T04:17:12.214Z,14.55
2017-08-21T04:18:14.098Z,14.50
2017-08-21T04:19:15.929Z,14.54
2017-08-21T04:20:17.767Z,14.50
2017-08-21T04:21:19.652Z,14.45
2017-08-21T04:22:21.537Z,14.45
2017-08-21T04:23:23.424Z,14.54
2017-08-21T04:24:37.588Z,14.61
2017-08-21T04:25:39.471Z,14.46
2017-08-21T04:26:41.358Z,14.57
2017-08-21T04:27:43.244Z,14.57
2017-08-21T04:28:45.080Z,14.55
2017-08-21T04:29:46.905Z,14.60
2017-08-21T04:30:48.809Z,14.62
2017-08-21T04:31:50.694Z,14.69
2017-08-21T04:32:52.591Z,14.65
2017-08-21T04:34:06.804Z,14.69
2017-08-21T04:35:08.692Z,14.69
2017-08-21T04:36:10.580Z,14.57
2017-08-21T04:37:12.469Z,14.68
2017-08-21T04:38:14.295Z,14.70
2017-08-21T04:39:16.120Z,14.68
2017-08-21T04:40:18.008Z,14.81
2017-08-21T04:41:19.893Z,14.84
2017-08-21T04:42:21.780Z,14.89
2017-08-21T04:43:35.939Z,14.95
2017-08-21T04:44:37.827Z,14.84
2017-08-21T04:45:39.711Z,14.96
2017-08-21T04:46:41.597Z,14.89
2017-08-21T04:47:43.424Z,14.86
2017-08-21T04:48:45.250Z,14.84
2017-08-21T04:49:47.147Z,14.99
2017-08-21T04:50:49.032Z,14.91
2017-08-21T04:51:50.919Z,15.01
2017-08-21T04:53:05.080Z,14.96
2017-08-21T04:54:06.966Z,14.86
2017-08-21T04:55:08.852Z,14.81
2017-08-21T04:56:10.739Z,14.73
2017-08-21T04:57:12.566Z,14.81
2017-08-21T04:58:14.389Z,14.78
2017-08-21T04:59:16.277Z,14.80
2017-08-21T05:00:18.170Z,14.75
2017-08-21T05:01:20.059Z,14.72
2017-08-21T05:02:34.219Z,14.73
2017-08-21T05:03:36.106Z,14.78
2017-08-21T05:04:38.002Z,14.73
2017-08-21T05:05:39.896Z,14.77
2017-08-21T05:06:41.717Z,14.75
2017-08-21T05:07:43.540Z,14.83
2017-08-21T05:08:45.440Z,14.86
2017-08-21T05:09:47.335Z,14.88
2017-08-21T05:10:49.224Z,14.78
2017-08-21T05:12:03.389Z,14.86
2017-08-21T05:13:05.278Z,14.92
2017-08-21T05:14:07.163Z,14.92
2017-08-21T05:15:09.051Z,15.01
2017-08-21T05:16:10.878Z,14.96
2017-08-21T05:17:12.713Z,15.07
2017-08-21T05:18:14.601Z,15.11
2017-08-21T05:19:16.489Z,15.27
2017-08-21T05:20:18.384Z,15.39
2017-08-21T05:21:32.543Z,15.34
2017-08-21T05:22:34.425Z,15.49
2017-08-21T05:23:36.310Z,15.51
2017-08-21T05:24:38.198Z,15.54
2017-08-21T05:25:40.029Z,15.39
2017-08-21T05:26:41.861Z,15.49
2017-08-21T05:27:43.748Z,15.51
2017-08-21T05:28:45.638Z,15.65
2017-08-21T05:29:47.527Z,15.75
2017-08-21T05:31:01.691Z,15.94
2017-08-21T05:32:03.578Z,15.94
2017-08-21T05:33:05.464Z,15.86
2017-08-21T05:34:07.356Z,15.97
2017-08-21T05:35:09.188Z,16.04
2017-08-21T05:36:11.012Z,16.11
2017-08-21T05:37:12.902Z,16.25
2017-08-21T05:38:14.786Z,16.21
2017-08-21T05:39:16.679Z,16.28
2017-08-21T05:40:30.841Z,16.11
2017-08-21T05:41:32.741Z,16.08
2017-08-21T05:42:34.626Z,16.21
2017-08-21T05:43:36.514Z,16.05
2017-08-21T05:44:38.357Z,16.07
2017-08-21T05:45:40.182Z,16.14
2017-08-21T05:46:42.081Z,16.25
2017-08-21T05:47:43.970Z,16.35
2017-08-21T05:48:45.861Z,16.35
2017-08-21T05:50:00.024Z,16.41
2017-08-21T05:51:01.911Z,16.35
2017-08-21T05:52:03.802Z,16.27
2017-08-21T05:53:05.693Z,16.27
2017-08-21T05:54:07.524Z,16.28
2017-08-21T05:55:09.351Z,16.21
2017-08-21T05:56:11.238Z,16.28
2017-08-21T05:57:13.136Z,16.28
2017-08-21T05:58:15.036Z,16.33
2017-08-21T05:59:29.199Z,16.30
2017-08-21T06:00:31.085Z,16.48
2017-08-21T06:01:32.983Z,16.64
2017-08-21T06:02:34.873Z,16.70
2017-08-21T06:03:36.705Z,16.61
2017-08-21T06:04:38.531Z,16.56
2017-08-21T06:05:40.418Z,16.63
2017-08-21T06:06:42.307Z,16.73
2017-08-21T06:07:44.198Z,16.85
2017-08-21T06:08:58.364Z,17.03
2017-08-21T06:10:00.252Z,17.16
2017-08-21T06:11:02.159Z,17.28
2017-08-21T06:12:04.036Z,17.30
2017-08-21T06:13:05.870Z,17.18
2017-08-21T06:14:07.694Z,17.03
2017-08-21T06:15:09.583Z,16.97
2017-08-21T06:16:11.472Z,16.85
2017-08-21T06:17:13.364Z,16.83
2017-08-21T06:18:27.530Z,16.73
2017-08-21T06:19:29.415Z,16.70
2017-08-21T06:20:31.311Z,16.66
2017-08-21T06:21:33.201Z,16.82
2017-08-21T06:22:35.044Z,16.73
2017-08-21T06:23:36.870Z,16.91
2017-08-21T06:24:38.766Z,16.98
2017-08-21T06:25:40.653Z,17.06
2017-08-21T06:26:42.553Z,17.07
2017-08-21T06:27:56.718Z,17.14
2017-08-21T06:28:58.619Z,17.16
2017-08-21T06:30:00.507Z,17.19
2017-08-21T06:31:02.409Z,17.19
2017-08-21T06:32:04.238Z,17.36
2017-08-21T06:33:06.066Z,17.33
2017-08-21T06:34:07.965Z,17.36
2017-08-21T06:35:09.854Z,17.43
2017-08-21T06:36:11.746Z,17.30
2017-08-21T06:37:25.957Z,17.36
2017-08-21T06:38:27.844Z,17.44
2017-08-21T06:39:29.741Z,17.56
2017-08-21T06:40:31.631Z,17.43
2017-08-21T06:41:33.460Z,17.40
2017-08-21T06:42:35.285Z,17.41
2017-08-21T06:43:37.185Z,17.25
2017-08-21T06:44:39.074Z,17.12
2017-08-21T06:45:40.975Z,17.08
2017-08-21T06:46:55.142Z,17.03
2017-08-21T06:47:57.027Z,17.00
2017-08-21T06:48:58.914Z,16.81
2017-08-21T06:50:00.801Z,16.86
2017-08-21T06:51:02.632Z,16.81
2017-08-21T06:52:04.472Z,16.97
2017-08-21T06:53:06.362Z,17.04
2017-08-21T06:54:08.250Z,17.08
2017-08-21T06:55:10.138Z,17.15
2017-08-21T06:56:24.303Z,17.14
2017-08-21T06:57:26.193Z,17.19
2017-08-21T06:58:28.082Z,17.19
2017-08-21T06:59:29.971Z,17.21
2017-08-21T07:00:31.810Z,17.31
2017-08-21T07:01:33.636Z,17.28
2017-08-21T07:02:35.537Z,17.26
2017-08-21T07:03:37.427Z,17.19
2017-08-21T07:04:39.314Z,17.41
2017-08-21T07:05:53.480Z,17.68
2017-08-21T07:06:55.370Z,17.75
2017-08-21T07:07:57.269Z,17.74
2017-08-21T07:08:59.170Z,17.78
2017-08-21T07:10:01.000Z,17.70
2017-08-21T07:11:02.840Z,17.64
2017-08-21T07:12:04.720Z,17.77
2017-08-21T07:13:06.610Z,17.93
2017-08-21T07:14:08.502Z,18.02
2017-08-21T07:15:22.666Z,18.14
2017-08-21T07:16:24.566Z,18.11
2017-08-21T07:17:26.465Z,18.17
2017-08-21T07:18:28.355Z,18.02
2017-08-21T07:19:30.186Z,17.92
2017-08-21T07:20:32.027Z,17.87
2017-08-21T07:21:33.914Z,17.95
2017-08-21T07:22:35.814Z,17.95
2017-08-21T07:23:37.705Z,17.99
2017-08-21T07:24:51.931Z,17.93
2017-08-21T07:25:53.819Z,17.90
2017-08-21T07:26:55.723Z,18.10
2017-08-21T07:27:57.610Z,18.25
2017-08-21T07:28:59.442Z,18.51
2017-08-21T07:30:01.272Z,18.62
2017-08-21T07:31:03.164Z,18.62
2017-08-21T07:32:05.054Z,19.06
2017-08-21T07:33:06.956Z,19.21
2017-08-21T07:34:21.132Z,19.26
2017-08-21T07:35:23.021Z,19.23
2017-08-21T07:36:24.912Z,19.26
2017-08-21T07:37:26.799Z,19.08
2017-08-21T07:38:28.643Z,18.98
2017-08-21T07:39:30.473Z,18.78
2017-08-21T07:40:32.368Z,18.72
2017-08-21T07:41:34.251Z,18.62
2017-08-21T07:42:36.158Z,18.76
2017-08-21T07:43:50.321Z,18.81
2017-08-21T07:44:52.210Z,18.87
2017-08-21T07:45:54.096Z,18.95
2017-08-21T07:46:56.001Z,18.82
2017-08-21T07:47:57.835Z,18.72
2017-08-21T07:48:59.661Z,18.72
2017-08-21T07:50:01.557Z,18.70
2017-08-21T07:51:03.442Z,18.72
2017-08-21T07:52:05.333Z,18.75
2017-08-21T07:53:19.500Z,18.66
2017-08-21T07:54:21.390Z,18.45
2017-08-21T07:55:23.287Z,18.27
2017-08-21T07:56:25.174Z,18.25
2017-08-21T07:57:27.006Z,18.41
2017-08-21T07:58:28.837Z,18.63
2017-08-21T07:59:30.732Z,18.60
2017-08-21T08:00:32.620Z,18.57
2017-08-21T08:01:34.531Z,18.62
2017-08-21T08:02:48.681Z,18.63
2017-08-21T08:03:50.569Z,18.63
2017-08-21T08:04:52.462Z,18.69
2017-08-21T08:05:54.351Z,18.73
2017-08-21T08:06:56.197Z,18.76
2017-08-21T08:07:58.023Z,18.65
2017-08-21T08:08:59.912Z,18.42
2017-08-21T08:10:01.800Z,18.29
2017-08-21T08:11:03.702Z,18.20
2017-08-21T08:12:17.869Z,18.45
2017-08-21T08:13:19.756Z,18.54
2017-08-21T08:14:21.646Z,18.73
2017-08-21T08:15:23.535Z,18.88
2017-08-21T08:16:25.374Z,19.04
2017-08-21T08:17:27.202Z,19.26
2017-08-21T08:18:29.090Z,19.50
2017-08-21T08:19:30.990Z,19.73
2017-08-21T08:20:32.884Z,19.66
2017-08-21T08:21:47.097Z,19.36
2017-08-21T08:22:48.988Z,19.10
2017-08-21T08:23:50.878Z,19.04
2017-08-21T08:24:52.773Z,19.14
2017-08-21T08:25:54.604Z,19.21
2017-08-21T08:26:56.433Z,19.22
2017-08-21T08:27:58.334Z,19.28
2017-08-21T08:29:00.225Z,19.23
2017-08-21T08:30:02.115Z,19.04
2017-08-21T08:31:16.280Z,18.90
2017-08-21T08:32:18.170Z,18.91
2017-08-21T08:33:20.070Z,19.10
2017-08-21T08:34:21.964Z,19.19
2017-08-21T08:35:23.812Z,19.41
2017-08-21T08:36:25.630Z,19.50
2017-08-21T08:37:27.529Z,19.71
2017-08-21T08:38:29.415Z,19.92
2017-08-21T08:39:31.317Z,19.81
2017-08-21T08:40:45.484Z,19.84
2017-08-21T08:41:47.376Z,19.98
2017-08-21T08:42:49.268Z,20.10
2017-08-21T08:43:51.160Z,19.95
2017-08-21T08:44:52.993Z,19.96
2017-08-21T08:45:54.827Z,20.11
2017-08-21T08:46:56.719Z,20.08
2017-08-21T08:47:58.615Z,20.11
2017-08-21T08:49:00.519Z,20.20
2017-08-21T08:50:14.674Z,20.43
2017-08-21T08:51:16.564Z,20.58
2017-08-21T08:52:18.465Z,20.74
2017-08-21T08:53:20.356Z,20.70
2017-08-21T08:54:22.199Z,20.76
2017-08-21T08:55:24.041Z,20.89
2017-08-21T08:56:25.918Z,20.99
2017-08-21T08:57:27.806Z,20.88
2017-08-21T08:58:29.708Z,20.76
2017-08-21T08:59:43.877Z,20.80
2017-08-21T09:00:45.767Z,20.70
2017-08-21T09:01:47.657Z,20.62
2017-08-21T09:02:49.550Z,20.47
2017-08-21T09:03:51.394Z,20.18
2017-08-21T09:04:53.233Z,20.16
2017-08-21T09:05:55.119Z,20.06
2017-08-21T09:06:57.008Z,20.01
2017-08-21T09:07:58.899Z,19.74
2017-08-21T09:09:13.064Z,19.40
2017-08-21T09:10:14.962Z,19.22
2017-08-21T09:11:16.850Z,18.94
2017-08-21T09:12:18.741Z,18.85
2017-08-21T09:13:20.574Z,18.87
2017-08-21T09:14:22.403Z,18.90
2017-08-21T09:15:25.040Z,18.85
2017-08-21T09:16:26.905Z,18.94
2017-08-21T09:17:28.798Z,19.06
2017-08-21T09:18:42.970Z,19.22
2017-08-21T09:19:44.850Z,19.23
2017-08-21T09:20:46.750Z,19.37
2017-08-21T09:21:48.642Z,19.41
2017-08-21T09:22:50.475Z,19.48
2017-08-21T09:23:52.329Z,19.41
2017-08-21T09:24:54.205Z,19.46
2017-08-21T09:25:56.144Z,19.50
2017-08-21T09:26:58.043Z,19.40
2017-08-21T09:28:12.220Z,19.39
2017-08-21T09:29:14.114Z,19.37
2017-08-21T09:30:16.012Z,19.16
2017-08-21T09:31:17.893Z,19.11
2017-08-21T09:32:19.726Z,19.18
2017-08-21T09:33:21.566Z,19.07
2017-08-21T09:34:23.392Z,19.10
2017-08-21T09:35:25.237Z,19.11
2017-08-21T09:36:27.060Z,19.02
2017-08-21T09:37:41.226Z,19.07
2017-08-21T09:38:43.117Z,19.04
2017-08-21T09:39:45.496Z,19.04
2017-08-21T09:40:47.378Z,19.04
2017-08-21T09:41:49.209Z,19.22
2017-08-21T09:42:51.035Z,19.21
2017-08-21T09:43:52.936Z,19.07
2017-08-21T09:44:54.824Z,19.08
2017-08-21T09:45:56.712Z,19.10
2017-08-21T09:47:11.098Z,19.04
2017-08-21T09:48:12.997Z,19.10
2017-08-21T09:49:14.887Z,19.13
2017-08-21T09:50:16.775Z,19.22
2017-08-21T09:51:18.607Z,19.25
2017-08-21T09:52:20.434Z,19.21
2017-08-21T09:53:22.334Z,19.48
2017-08-21T09:54:24.208Z,19.63
2017-08-21T09:55:26.098Z,19.91
2017-08-21T09:56:40.275Z,20.21
2017-08-21T09:57:42.165Z,20.54
2017-08-21T09:58:44.066Z,20.67
2017-08-21T09:59:45.957Z,20.74
2017-08-21T10:00:47.790Z,20.95
2017-08-21T10:01:49.618Z,21.03
2017-08-21T10:02:51.514Z,21.16
2017-08-21T10:03:53.415Z,21.24
2017-08-21T10:04:55.315Z,21.12
2017-08-21T10:06:09.481Z,20.99
2017-08-21T10:07:11.381Z,20.89
2017-08-21T10:08:13.295Z,20.89
2017-08-21T10:09:15.209Z,20.87
2017-08-21T10:10:17.039Z,20.76
2017-08-21T10:11:18.867Z,20.77
2017-08-21T10:12:20.757Z,20.89
2017-08-21T10:13:22.655Z,20.91
2017-08-21T10:14:24.560Z,20.80
2017-08-21T10:15:38.724Z,20.57
2017-08-21T10:16:40.610Z,20.43
2017-08-21T10:17:42.507Z,20.57
2017-08-21T10:18:44.398Z,20.58
2017-08-21T10:19:46.230Z,20.58
2017-08-21T10:20:48.061Z,20.58
2017-08-21T10:21:49.950Z,20.52
2017-08-21T10:22:51.914Z,20.48
2017-08-21T10:23:54.134Z,20.58
2017-08-21T10:25:08.278Z,20.66
2017-08-21T10:26:10.200Z,20.42
2017-08-21T10:27:12.087Z,20.24
2017-08-21T10:28:13.986Z,20.33
2017-08-21T10:29:15.831Z,20.36
2017-08-21T10:30:17.660Z,20.38
2017-08-21T10:31:19.549Z,20.29
2017-08-21T10:32:21.439Z,20.24
2017-08-21T10:33:23.332Z,20.32
2017-08-21T10:34:37.497Z,20.38
2017-08-21T10:35:39.385Z,20.51
2017-08-21T10:36:41.286Z,20.57
2017-08-21T10:37:43.177Z,20.73
2017-08-21T10:38:45.011Z,20.92
2017-08-21T10:39:46.840Z,21.22
2017-08-21T10:40:48.733Z,21.52
2017-08-21T10:41:50.817Z,21.83
2017-08-21T10:42:52.709Z,22.06
2017-08-21T10:44:06.876Z,22.33
2017-08-21T10:45:08.766Z,22.55
2017-08-21T10:46:10.656Z,22.70
2017-08-21T10:47:12.544Z,22.73
2017-08-21T10:48:14.376Z,22.76
2017-08-21T10:49:16.204Z,22.75
2017-08-21T10:50:18.091Z,22.52
2017-08-21T10:51:19.982Z,22.33
2017-08-21T10:52:21.873Z,22.15
2017-08-21T10:53:36.093Z,22.21
2017-08-21T10:54:37.978Z,22.27
2017-08-21T10:55:39.880Z,22.00
2017-08-21T10:56:41.769Z,21.90
2017-08-21T10:57:43.617Z,21.80
2017-08-21T10:58:45.447Z,21.92
2017-08-21T10:59:47.331Z,22.10
2017-08-21T11:00:49.222Z,22.03
2017-08-21T11:01:51.115Z,21.86
2017-08-21T11:03:05.285Z,21.64
2017-08-21T11:04:07.174Z,21.28
2017-08-21T11:05:09.063Z,20.99
2017-08-21T11:06:10.956Z,20.91
2017-08-21T11:07:12.786Z,20.82
2017-08-21T11:08:14.615Z,20.74
2017-08-21T11:09:16.504Z,20.66
2017-08-21T11:10:18.355Z,20.70
2017-08-21T11:11:20.202Z,20.87
2017-08-21T11:12:34.408Z,21.03
2017-08-21T11:13:36.299Z,21.14
2017-08-21T11:14:38.183Z,21.19
2017-08-21T11:15:40.081Z,21.12
2017-08-21T11:16:41.910Z,21.13
2017-08-21T11:17:43.741Z,21.04
2017-08-21T11:18:45.632Z,21.03
2017-08-21T11:19:47.526Z,21.13
2017-08-21T11:20:49.418Z,21.17
2017-08-21T11:22:03.590Z,21.29
2017-08-21T11:23:05.479Z,21.27
2017-08-21T11:24:07.380Z,21.32
2017-08-21T11:25:09.272Z,21.21
2017-08-21T11:26:11.107Z,21.21
2017-08-21T11:27:12.936Z,21.29
2017-08-21T11:28:14.825Z,21.38
2017-08-21T11:29:16.715Z,21.43
2017-08-21T11:30:18.611Z,21.49
2017-08-21T11:31:32.781Z,21.49
2017-08-21T11:32:34.670Z,21.52
2017-08-21T11:33:36.574Z,21.47
2017-08-21T11:34:38.469Z,21.43
2017-08-21T11:35:40.302Z,21.40
2017-08-21T11:36:42.133Z,21.22
2017-08-21T11:37:44.026Z,20.97
2017-08-21T11:38:45.912Z,20.74
2017-08-21T11:39:47.811Z,20.59
2017-08-21T11:41:01.981Z,20.55
2017-08-21T11:42:03.869Z,20.52
2017-08-21T11:43:05.758Z,20.58
2017-08-21T11:44:07.653Z,20.58
2017-08-21T11:45:09.481Z,20.41
2017-08-21T11:46:11.311Z,20.43
2017-08-21T11:47:13.199Z,20.43
2017-08-21T11:48:15.100Z,20.58
2017-08-21T11:49:16.998Z,20.70
2017-08-21T11:50:31.166Z,20.76
2017-08-21T11:51:33.057Z,20.79
2017-08-21T11:52:34.945Z,20.69
2017-08-21T11:53:36.836Z,20.74
2017-08-21T11:54:38.684Z,20.84
2017-08-21T11:55:40.516Z,21.04
2017-08-21T11:56:42.418Z,21.13
2017-08-21T11:57:44.298Z,21.38
2017-08-21T11:58:46.190Z,21.47
2017-08-21T12:00:00.357Z,21.50
2017-08-21T12:01:02.249Z,21.62
2017-08-21T12:02:04.136Z,21.74
2017-08-21T12:03:06.027Z,21.71
2017-08-21T12:04:07.861Z,21.77
2017-08-21T12:05:09.691Z,21.64
2017-08-21T12:06:11.583Z,21.49
2017-08-21T12:07:13.476Z,21.50
2017-08-21T12:08:15.372Z,21.56
2017-08-21T12:09:29.536Z,21.67
2017-08-21T12:10:31.428Z,21.59
2017-08-21T12:11:33.319Z,21.44
2017-08-21T12:12:35.213Z,21.04
2017-08-21T12:13:37.059Z,20.89
2017-08-21T12:14:38.892Z,20.77
2017-08-21T12:15:40.784Z,20.87
2017-08-21T12:16:42.675Z,21.03
2017-08-21T12:17:44.565Z,21.12
2017-08-21T12:18:58.733Z,21.17
2017-08-21T12:20:00.623Z,21.27
2017-08-21T12:21:02.514Z,21.40
2017-08-21T12:22:04.417Z,21.50
2017-08-21T12:23:06.250Z,21.65
2017-08-21T12:24:08.081Z,21.52
2017-08-21T12:25:09.983Z,21.37
2017-08-21T12:26:11.873Z,21.56
2017-08-21T12:27:13.767Z,21.80
2017-08-21T12:28:27.949Z,21.75
2017-08-21T12:29:29.840Z,21.69
2017-08-21T12:30:31.747Z,21.62
2017-08-21T12:31:33.639Z,21.61
2017-08-21T12:32:35.472Z,21.53
2017-08-21T12:33:37.303Z,21.56
2017-08-21T12:34:39.203Z,21.47
2017-08-21T12:35:41.098Z,21.54
2017-08-21T12:36:42.988Z,21.67
2017-08-21T12:37:57.157Z,21.74
2017-08-21T12:38:59.047Z,21.91
2017-08-21T12:40:00.936Z,21.96
2017-08-21T12:41:02.827Z,21.96
2017-08-21T12:42:04.664Z,21.75
2017-08-21T12:43:06.507Z,21.74
2017-08-21T12:44:08.373Z,21.50
2017-08-21T12:45:10.292Z,21.27
2017-08-21T12:46:12.185Z,21.07
2017-08-21T12:47:26.352Z,20.97
2017-08-21T12:48:28.241Z,20.95
2017-08-21T12:49:30.131Z,20.91
2017-08-21T12:50:32.022Z,20.88
2017-08-21T12:51:33.867Z,20.80
2017-08-21T12:52:35.701Z,20.74
2017-08-21T12:53:37.590Z,20.67
2017-08-21T12:54:39.479Z,20.73
2017-08-21T12:55:41.370Z,20.76
2017-08-21T12:56:55.534Z,20.95
2017-08-21T12:57:57.421Z,21.10
2017-08-21T12:58:59.323Z,21.13
2017-08-21T13:00:01.211Z,20.91
2017-08-21T13:01:03.043Z,20.77
2017-08-21T13:02:04.872Z,20.66
2017-08-21T13:03:06.760Z,20.72
2017-08-21T13:04:08.647Z,20.73
2017-08-21T13:05:10.536Z,20.82
2017-08-21T13:06:24.704Z,20.85
2017-08-21T13:07:26.593Z,20.91
2017-08-21T13:08:28.487Z,20.85
2017-08-21T13:09:30.377Z,21.04
2017-08-21T13:10:32.222Z,21.29
2017-08-21T13:11:34.052Z,21.40
2017-08-21T13:12:35.947Z,21.56
2017-08-21T13:13:37.848Z,21.68
2017-08-21T13:14:39.738Z,21.68
2017-08-21T13:15:53.954Z,21.74
2017-08-21T13:16:55.843Z,21.64
2017-08-21T13:17:57.733Z,21.47
2017-08-21T13:18:59.627Z,21.25
2017-08-21T13:20:01.472Z,21.29
2017-08-21T13:21:03.297Z,21.28
2017-08-21T13:22:05.187Z,21.43
2017-08-21T13:23:07.075Z,21.56
2017-08-21T13:24:08.979Z,21.50
2017-08-21T13:25:23.151Z,21.19
2017-08-21T13:26:25.035Z,20.99
2017-08-21T13:27:26.923Z,21.03
2017-08-21T13:28:28.811Z,21.07
2017-08-21T13:29:30.643Z,21.12
2017-08-21T13:30:32.471Z,21.13
2017-08-21T13:31:34.370Z,21.21
2017-08-21T13:32:36.258Z,21.14
2017-08-21T13:33:38.154Z,21.04